sensor_id;sensor_type;location;lat;lon;timestamp;P1;durP1;ratioP1;P2;durP2;ratioP2
22955;SDS011;40888;48.148;11.526;2024-01-30T00:01:41;12.50;;;7.10;;
22955;SDS011;40888;48.148;11.526;2024-01-30T00:04:07;8.50;;;6.83;;
22955;SDS011;40888;48.148;11.526;2024-01-30T00:06:33;9.77;;;6.73;;
22955;SDS011;40888;48.148;11.526;2024-01-30T00:08:59;10.20;;;6.87;;
22955;SDS011;40888;48.148;11.526;2024-01-30T00:11:25;8.20;;;7.00;;
22955;SDS011;40888;48.148;11.526;2024-01-30T00:13:53;9.77;;;7.33;;
22955;SDS011;40888;48.148;11.526;2024-01-30T00:16:23;9.70;;;7.23;;
22955;SDS011;40888;48.148;11.526;2024-01-30T00:18:50;8.40;;;6.40;;
22955;SDS011;40888;48.148;11.526;2024-01-30T00:21:16;9.07;;;7.07;;
22955;SDS011;40888;48.148;11.526;2024-01-30T00:23:42;8.77;;;7.10;;
22955;SDS011;40888;48.148;11.526;2024-01-30T00:26:09;8.73;;;6.63;;
22955;SDS011;40888;48.148;11.526;2024-01-30T00:28:36;10.97;;;7.63;;
22955;SDS011;40888;48.148;11.526;2024-01-30T00:31:02;9.33;;;6.70;;
22955;SDS011;40888;48.148;11.526;2024-01-30T00:33:28;10.13;;;7.07;;
22955;SDS011;40888;48.148;11.526;2024-01-30T00:35:54;8.63;;;6.80;;
22955;SDS011;40888;48.148;11.526;2024-01-30T00:38:20;9.47;;;7.30;;
22955;SDS011;40888;48.148;11.526;2024-01-30T00:40:46;7.60;;;6.33;;
22955;SDS011;40888;48.148;11.526;2024-01-30T00:43:13;8.20;;;6.77;;
22955;SDS011;40888;48.148;11.526;2024-01-30T00:45:39;10.23;;;6.13;;
22955;SDS011;40888;48.148;11.526;2024-01-30T00:48:05;8.37;;;6.20;;
22955;SDS011;40888;48.148;11.526;2024-01-30T00:50:31;8.83;;;6.33;;
22955;SDS011;40888;48.148;11.526;2024-01-30T00:52:57;8.63;;;6.70;;
22955;SDS011;40888;48.148;11.526;2024-01-30T00:55:23;9.23;;;7.00;;
22955;SDS011;40888;48.148;11.526;2024-01-30T00:57:49;9.20;;;7.83;;
22955;SDS011;40888;48.148;11.526;2024-01-30T01:00:15;9.93;;;7.23;;
22955;SDS011;40888;48.148;11.526;2024-01-30T01:02:42;10.13;;;7.10;;
22955;SDS011;40888;48.148;11.526;2024-01-30T01:05:08;8.37;;;6.70;;
22955;SDS011;40888;48.148;11.526;2024-01-30T01:07:34;8.90;;;6.20;;
22955;SDS011;40888;48.148;11.526;2024-01-30T01:10:00;9.77;;;7.10;;
22955;SDS011;40888;48.148;11.526;2024-01-30T01:12:27;8.77;;;6.40;;
22955;SDS011;40888;48.148;11.526;2024-01-30T01:14:53;7.87;;;6.57;;
22955;SDS011;40888;48.148;11.526;2024-01-30T01:17:19;7.80;;;6.80;;
22955;SDS011;40888;48.148;11.526;2024-01-30T01:19:46;8.63;;;7.00;;
22955;SDS011;40888;48.148;11.526;2024-01-30T01:22:12;7.83;;;6.23;;
22955;SDS011;40888;48.148;11.526;2024-01-30T01:24:38;7.80;;;6.03;;
22955;SDS011;40888;48.148;11.526;2024-01-30T01:27:04;8.37;;;6.83;;
22955;SDS011;40888;48.148;11.526;2024-01-30T01:29:31;10.57;;;7.03;;
22955;SDS011;40888;48.148;11.526;2024-01-30T01:31:57;11.97;;;6.90;;
22955;SDS011;40888;48.148;11.526;2024-01-30T01:34:24;11.03;;;7.30;;
22955;SDS011;40888;48.148;11.526;2024-01-30T01:36:50;8.27;;;6.70;;
22955;SDS011;40888;48.148;11.526;2024-01-30T01:39:17;8.13;;;6.70;;
22955;SDS011;40888;48.148;11.526;2024-01-30T01:41:43;10.07;;;6.47;;
22955;SDS011;40888;48.148;11.526;2024-01-30T01:44:09;7.30;;;6.20;;
22955;SDS011;40888;48.148;11.526;2024-01-30T01:46:35;7.07;;;5.90;;
22955;SDS011;40888;48.148;11.526;2024-01-30T01:49:02;8.43;;;6.47;;
22955;SDS011;40888;48.148;11.526;2024-01-30T01:51:30;7.47;;;6.07;;
22955;SDS011;40888;48.148;11.526;2024-01-30T01:53:57;9.47;;;6.20;;
22955;SDS011;40888;48.148;11.526;2024-01-30T01:56:24;8.07;;;6.37;;
22955;SDS011;40888;48.148;11.526;2024-01-30T01:58:51;6.50;;;5.50;;
22955;SDS011;40888;48.148;11.526;2024-01-30T02:01:18;6.70;;;4.87;;
22955;SDS011;40888;48.148;11.526;2024-01-30T02:03:45;6.03;;;5.07;;
22955;SDS011;40888;48.148;11.526;2024-01-30T02:06:12;9.00;;;5.77;;
22955;SDS011;40888;48.148;11.526;2024-01-30T02:08:39;6.60;;;5.23;;
22955;SDS011;40888;48.148;11.526;2024-01-30T02:11:05;7.97;;;5.37;;
22955;SDS011;40888;48.148;11.526;2024-01-30T02:13:31;6.93;;;5.83;;
22955;SDS011;40888;48.148;11.526;2024-01-30T02:15:57;7.03;;;4.97;;
22955;SDS011;40888;48.148;11.526;2024-01-30T02:18:23;8.00;;;5.60;;
22955;SDS011;40888;48.148;11.526;2024-01-30T02:20:49;5.93;;;5.33;;
22955;SDS011;40888;48.148;11.526;2024-01-30T02:23:19;6.60;;;5.30;;
22955;SDS011;40888;48.148;11.526;2024-01-30T02:25:45;5.50;;;4.90;;
22955;SDS011;40888;48.148;11.526;2024-01-30T02:28:11;6.97;;;5.50;;
22955;SDS011;40888;48.148;11.526;2024-01-30T02:30:38;7.10;;;4.97;;
22955;SDS011;40888;48.148;11.526;2024-01-30T02:33:04;8.10;;;5.23;;
22955;SDS011;40888;48.148;11.526;2024-01-30T02:35:31;7.30;;;5.37;;
22955;SDS011;40888;48.148;11.526;2024-01-30T02:37:58;6.30;;;4.87;;
22955;SDS011;40888;48.148;11.526;2024-01-30T02:42:52;6.37;;;5.77;;
22955;SDS011;40888;48.148;11.526;2024-01-30T02:45:18;7.77;;;5.30;;
22955;SDS011;40888;48.148;11.526;2024-01-30T02:47:45;7.83;;;5.70;;
22955;SDS011;40888;48.148;11.526;2024-01-30T02:50:11;8.53;;;4.83;;
22955;SDS011;40888;48.148;11.526;2024-01-30T02:52:37;8.57;;;6.83;;
22955;SDS011;40888;48.148;11.526;2024-01-30T02:55:03;5.30;;;4.63;;
22955;SDS011;40888;48.148;11.526;2024-01-30T02:57:29;6.30;;;5.10;;
22955;SDS011;40888;48.148;11.526;2024-01-30T02:59:55;6.70;;;5.27;;
22955;SDS011;40888;48.148;11.526;2024-01-30T03:02:21;6.87;;;5.50;;
22955;SDS011;40888;48.148;11.526;2024-01-30T03:04:48;9.13;;;5.27;;
22955;SDS011;40888;48.148;11.526;2024-01-30T03:07:14;5.37;;;4.63;;
22955;SDS011;40888;48.148;11.526;2024-01-30T03:09:41;9.90;;;4.90;;
22955;SDS011;40888;48.148;11.526;2024-01-30T03:12:09;5.77;;;4.60;;
22955;SDS011;40888;48.148;11.526;2024-01-30T03:14:35;5.03;;;4.47;;
22955;SDS011;40888;48.148;11.526;2024-01-30T03:17:02;7.43;;;4.70;;
22955;SDS011;40888;48.148;11.526;2024-01-30T03:19:28;15.70;;;11.50;;
22955;SDS011;40888;48.148;11.526;2024-01-30T03:21:54;7.00;;;5.17;;
22955;SDS011;40888;48.148;11.526;2024-01-30T03:24:20;5.07;;;4.50;;
22955;SDS011;40888;48.148;11.526;2024-01-30T03:26:46;5.13;;;3.87;;
22955;SDS011;40888;48.148;11.526;2024-01-30T03:29:12;6.60;;;4.13;;
22955;SDS011;40888;48.148;11.526;2024-01-30T03:31:39;4.53;;;3.90;;
22955;SDS011;40888;48.148;11.526;2024-01-30T03:34:05;5.83;;;3.90;;
22955;SDS011;40888;48.148;11.526;2024-01-30T03:36:32;6.17;;;4.80;;
22955;SDS011;40888;48.148;11.526;2024-01-30T03:38:59;5.77;;;4.40;;
22955;SDS011;40888;48.148;11.526;2024-01-30T03:41:25;4.60;;;4.20;;
22955;SDS011;40888;48.148;11.526;2024-01-30T03:43:51;5.57;;;3.70;;
22955;SDS011;40888;48.148;11.526;2024-01-30T03:46:18;4.03;;;3.63;;
22955;SDS011;40888;48.148;11.526;2024-01-30T03:48:44;4.87;;;4.00;;
22955;SDS011;40888;48.148;11.526;2024-01-30T03:51:11;5.40;;;3.67;;
22955;SDS011;40888;48.148;11.526;2024-01-30T03:53:42;5.00;;;4.20;;
22955;SDS011;40888;48.148;11.526;2024-01-30T03:56:09;4.13;;;3.73;;
22955;SDS011;40888;48.148;11.526;2024-01-30T03:58:35;5.67;;;3.80;;
22955;SDS011;40888;48.148;11.526;2024-01-30T04:01:01;4.07;;;3.67;;
22955;SDS011;40888;48.148;11.526;2024-01-30T04:03:27;4.47;;;3.90;;
22955;SDS011;40888;48.148;11.526;2024-01-30T04:05:53;5.30;;;3.57;;
22955;SDS011;40888;48.148;11.526;2024-01-30T04:08:19;3.70;;;2.90;;
22955;SDS011;40888;48.148;11.526;2024-01-30T04:10:46;3.80;;;3.40;;
22955;SDS011;40888;48.148;11.526;2024-01-30T04:13:12;3.57;;;3.27;;
22955;SDS011;40888;48.148;11.526;2024-01-30T04:15:38;4.00;;;3.10;;
22955;SDS011;40888;48.148;11.526;2024-01-30T04:18:05;5.50;;;3.03;;
22955;SDS011;40888;48.148;11.526;2024-01-30T04:20:31;4.23;;;3.10;;
22955;SDS011;40888;48.148;11.526;2024-01-30T04:22:57;5.03;;;3.23;;
22955;SDS011;40888;48.148;11.526;2024-01-30T04:25:23;5.73;;;3.40;;
22955;SDS011;40888;48.148;11.526;2024-01-30T04:27:49;4.47;;;3.30;;
22955;SDS011;40888;48.148;11.526;2024-01-30T04:30:15;3.80;;;3.33;;
22955;SDS011;40888;48.148;11.526;2024-01-30T04:32:42;4.03;;;3.63;;
22955;SDS011;40888;48.148;11.526;2024-01-30T04:35:08;4.17;;;3.40;;
22955;SDS011;40888;48.148;11.526;2024-01-30T04:37:35;5.13;;;3.27;;
22955;SDS011;40888;48.148;11.526;2024-01-30T04:40:01;3.73;;;3.40;;
22955;SDS011;40888;48.148;11.526;2024-01-30T04:42:28;5.87;;;3.23;;
22955;SDS011;40888;48.148;11.526;2024-01-30T04:44:54;3.93;;;3.43;;
22955;SDS011;40888;48.148;11.526;2024-01-30T04:47:20;5.87;;;3.67;;
22955;SDS011;40888;48.148;11.526;2024-01-30T04:49:46;4.37;;;3.60;;
22955;SDS011;40888;48.148;11.526;2024-01-30T04:52:12;6.40;;;3.30;;
22955;SDS011;40888;48.148;11.526;2024-01-30T04:54:38;5.90;;;3.20;;
22955;SDS011;40888;48.148;11.526;2024-01-30T04:57:04;5.63;;;2.83;;
22955;SDS011;40888;48.148;11.526;2024-01-30T04:59:34;4.57;;;2.90;;
22955;SDS011;40888;48.148;11.526;2024-01-30T05:02:01;4.67;;;3.20;;
22955;SDS011;40888;48.148;11.526;2024-01-30T05:04:27;4.17;;;3.00;;
22955;SDS011;40888;48.148;11.526;2024-01-30T05:06:53;4.70;;;3.10;;
22955;SDS011;40888;48.148;11.526;2024-01-30T05:09:41;3.73;;;2.70;;
22955;SDS011;40888;48.148;11.526;2024-01-30T05:12:06;3.53;;;2.83;;
22955;SDS011;40888;48.148;11.526;2024-01-30T05:14:32;4.37;;;3.23;;
22955;SDS011;40888;48.148;11.526;2024-01-30T05:16:58;2.80;;;2.57;;
22955;SDS011;40888;48.148;11.526;2024-01-30T05:19:25;4.40;;;3.07;;
22955;SDS011;40888;48.148;11.526;2024-01-30T05:21:51;3.07;;;2.77;;
22955;SDS011;40888;48.148;11.526;2024-01-30T05:24:17;3.20;;;2.83;;
22955;SDS011;40888;48.148;11.526;2024-01-30T05:26:43;4.90;;;3.13;;
22955;SDS011;40888;48.148;11.526;2024-01-30T05:29:09;3.73;;;3.00;;
22955;SDS011;40888;48.148;11.526;2024-01-30T05:31:35;4.93;;;3.23;;
22955;SDS011;40888;48.148;11.526;2024-01-30T05:34:01;3.50;;;3.20;;
22955;SDS011;40888;48.148;11.526;2024-01-30T05:36:27;3.90;;;3.10;;
22955;SDS011;40888;48.148;11.526;2024-01-30T05:38:53;3.60;;;2.60;;
22955;SDS011;40888;48.148;11.526;2024-01-30T05:41:19;4.03;;;2.90;;
22955;SDS011;40888;48.148;11.526;2024-01-30T05:43:48;3.50;;;2.80;;
22955;SDS011;40888;48.148;11.526;2024-01-30T05:46:14;3.63;;;3.20;;
22955;SDS011;40888;48.148;11.526;2024-01-30T05:48:40;4.87;;;3.47;;
22955;SDS011;40888;48.148;11.526;2024-01-30T05:51:07;4.07;;;3.67;;
22955;SDS011;40888;48.148;11.526;2024-01-30T05:53:33;7.83;;;3.80;;
22955;SDS011;40888;48.148;11.526;2024-01-30T05:56:01;6.87;;;3.60;;
22955;SDS011;40888;48.148;11.526;2024-01-30T05:58:27;4.20;;;3.60;;
22955;SDS011;40888;48.148;11.526;2024-01-30T06:00:53;4.60;;;3.37;;
22955;SDS011;40888;48.148;11.526;2024-01-30T06:03:19;5.43;;;3.47;;
22955;SDS011;40888;48.148;11.526;2024-01-30T06:05:45;4.17;;;3.63;;
22955;SDS011;40888;48.148;11.526;2024-01-30T06:08:11;4.67;;;3.67;;
22955;SDS011;40888;48.148;11.526;2024-01-30T06:10:37;7.43;;;3.47;;
22955;SDS011;40888;48.148;11.526;2024-01-30T06:13:05;5.17;;;3.63;;
22955;SDS011;40888;48.148;11.526;2024-01-30T06:15:31;5.70;;;3.30;;
22955;SDS011;40888;48.148;11.526;2024-01-30T06:17:58;5.00;;;3.83;;
22955;SDS011;40888;48.148;11.526;2024-01-30T06:20:24;4.80;;;3.60;;
22955;SDS011;40888;48.148;11.526;2024-01-30T06:22:50;6.63;;;3.87;;
22955;SDS011;40888;48.148;11.526;2024-01-30T06:25:16;6.67;;;3.33;;
22955;SDS011;40888;48.148;11.526;2024-01-30T06:27:42;5.03;;;3.57;;
22955;SDS011;40888;48.148;11.526;2024-01-30T06:30:08;7.17;;;3.13;;
22955;SDS011;40888;48.148;11.526;2024-01-30T06:32:37;5.00;;;3.17;;
22955;SDS011;40888;48.148;11.526;2024-01-30T06:35:06;6.57;;;3.10;;
22955;SDS011;40888;48.148;11.526;2024-01-30T06:37:33;3.17;;;2.87;;
22955;SDS011;40888;48.148;11.526;2024-01-30T06:39:59;4.60;;;3.03;;
22955;SDS011;40888;48.148;11.526;2024-01-30T06:42:25;5.67;;;3.17;;
22955;SDS011;40888;48.148;11.526;2024-01-30T06:44:51;4.37;;;3.23;;
22955;SDS011;40888;48.148;11.526;2024-01-30T06:47:20;4.47;;;2.70;;
22955;SDS011;40888;48.148;11.526;2024-01-30T06:49:46;6.13;;;3.30;;
22955;SDS011;40888;48.148;11.526;2024-01-30T06:52:12;3.70;;;2.70;;
22955;SDS011;40888;48.148;11.526;2024-01-30T06:54:39;6.07;;;3.70;;
22955;SDS011;40888;48.148;11.526;2024-01-30T06:57:05;5.63;;;3.40;;
22955;SDS011;40888;48.148;11.526;2024-01-30T06:59:36;7.13;;;3.57;;
22955;SDS011;40888;48.148;11.526;2024-01-30T07:02:08;6.83;;;3.50;;
22955;SDS011;40888;48.148;11.526;2024-01-30T07:04:34;5.30;;;3.50;;
22955;SDS011;40888;48.148;11.526;2024-01-30T07:07:02;5.00;;;3.47;;
22955;SDS011;40888;48.148;11.526;2024-01-30T07:09:29;5.03;;;3.60;;
22955;SDS011;40888;48.148;11.526;2024-01-30T07:11:55;3.93;;;3.50;;
22955;SDS011;40888;48.148;11.526;2024-01-30T07:14:23;8.73;;;5.83;;
22955;SDS011;40888;48.148;11.526;2024-01-30T07:16:49;7.10;;;4.00;;
22955;SDS011;40888;48.148;11.526;2024-01-30T07:19:15;6.33;;;3.10;;
22955;SDS011;40888;48.148;11.526;2024-01-30T07:21:41;7.57;;;3.40;;
22955;SDS011;40888;48.148;11.526;2024-01-30T07:24:07;6.33;;;3.50;;
22955;SDS011;40888;48.148;11.526;2024-01-30T07:26:34;4.70;;;3.50;;
22955;SDS011;40888;48.148;11.526;2024-01-30T07:29:00;5.97;;;3.30;;
22955;SDS011;40888;48.148;11.526;2024-01-30T07:31:27;6.13;;;3.67;;
22955;SDS011;40888;48.148;11.526;2024-01-30T07:33:53;5.57;;;3.50;;
22955;SDS011;40888;48.148;11.526;2024-01-30T07:36:19;4.37;;;3.33;;
22955;SDS011;40888;48.148;11.526;2024-01-30T07:38:45;5.50;;;3.00;;
22955;SDS011;40888;48.148;11.526;2024-01-30T07:41:11;4.87;;;3.57;;
22955;SDS011;40888;48.148;11.526;2024-01-30T07:43:38;5.63;;;3.50;;
22955;SDS011;40888;48.148;11.526;2024-01-30T07:46:04;5.07;;;3.60;;
22955;SDS011;40888;48.148;11.526;2024-01-30T07:48:31;5.47;;;3.70;;
22955;SDS011;40888;48.148;11.526;2024-01-30T07:50:58;8.17;;;3.67;;
22955;SDS011;40888;48.148;11.526;2024-01-30T07:53:24;7.13;;;3.80;;
22955;SDS011;40888;48.148;11.526;2024-01-30T07:55:51;9.87;;;3.87;;
22955;SDS011;40888;48.148;11.526;2024-01-30T07:58:17;6.30;;;3.47;;
22955;SDS011;40888;48.148;11.526;2024-01-30T08:00:44;8.00;;;3.80;;
22955;SDS011;40888;48.148;11.526;2024-01-30T08:03:10;5.40;;;3.30;;
22955;SDS011;40888;48.148;11.526;2024-01-30T08:05:36;4.70;;;2.90;;
22955;SDS011;40888;48.148;11.526;2024-01-30T08:08:04;7.10;;;2.83;;
22955;SDS011;40888;48.148;11.526;2024-01-30T08:10:30;6.70;;;3.30;;
22955;SDS011;40888;48.148;11.526;2024-01-30T08:12:56;5.80;;;2.97;;
22955;SDS011;40888;48.148;11.526;2024-01-30T08:15:22;5.97;;;3.20;;
22955;SDS011;40888;48.148;11.526;2024-01-30T08:17:48;7.70;;;2.63;;
22955;SDS011;40888;48.148;11.526;2024-01-30T08:20:14;5.57;;;2.53;;
22955;SDS011;40888;48.148;11.526;2024-01-30T08:22:41;5.57;;;2.67;;
22955;SDS011;40888;48.148;11.526;2024-01-30T08:25:07;5.00;;;2.40;;
22955;SDS011;40888;48.148;11.526;2024-01-30T08:27:35;6.57;;;2.50;;
22955;SDS011;40888;48.148;11.526;2024-01-30T08:30:03;4.03;;;2.63;;
22955;SDS011;40888;48.148;11.526;2024-01-30T08:32:29;2.67;;;1.97;;
22955;SDS011;40888;48.148;11.526;2024-01-30T08:34:55;4.97;;;2.27;;
22955;SDS011;40888;48.148;11.526;2024-01-30T08:37:21;4.87;;;2.20;;
22955;SDS011;40888;48.148;11.526;2024-01-30T08:39:47;4.33;;;2.27;;
22955;SDS011;40888;48.148;11.526;2024-01-30T08:42:13;3.10;;;2.70;;
22955;SDS011;40888;48.148;11.526;2024-01-30T08:44:39;4.63;;;2.60;;
22955;SDS011;40888;48.148;11.526;2024-01-30T08:47:05;5.63;;;2.73;;
22955;SDS011;40888;48.148;11.526;2024-01-30T08:49:31;4.20;;;2.57;;
22955;SDS011;40888;48.148;11.526;2024-01-30T08:51:57;4.40;;;2.53;;
22955;SDS011;40888;48.148;11.526;2024-01-30T08:54:23;3.90;;;2.80;;
22955;SDS011;40888;48.148;11.526;2024-01-30T08:56:49;5.97;;;2.83;;
22955;SDS011;40888;48.148;11.526;2024-01-30T08:59:17;4.77;;;2.80;;
22955;SDS011;40888;48.148;11.526;2024-01-30T09:01:44;7.83;;;2.77;;
22955;SDS011;40888;48.148;11.526;2024-01-30T09:04:10;7.40;;;2.93;;
22955;SDS011;40888;48.148;11.526;2024-01-30T09:06:36;7.00;;;2.90;;
22955;SDS011;40888;48.148;11.526;2024-01-30T09:09:04;5.03;;;2.83;;
22955;SDS011;40888;48.148;11.526;2024-01-30T09:11:30;4.90;;;2.53;;
22955;SDS011;40888;48.148;11.526;2024-01-30T09:13:56;9.23;;;3.08;;
22955;SDS011;40888;48.148;11.526;2024-01-30T09:16:23;3.50;;;2.35;;
22955;SDS011;40888;48.148;11.526;2024-01-30T09:18:49;2.53;;;2.20;;
22955;SDS011;40888;48.148;11.526;2024-01-30T09:21:15;5.22;;;2.40;;
22955;SDS011;40888;48.148;11.526;2024-01-30T09:23:41;3.53;;;2.47;;
22955;SDS011;40888;48.148;11.526;2024-01-30T09:26:07;3.65;;;2.28;;
22955;SDS011;40888;48.148;11.526;2024-01-30T09:28:34;8.18;;;2.45;;
22955;SDS011;40888;48.148;11.526;2024-01-30T09:31:00;2.90;;;2.22;;
22955;SDS011;40888;48.148;11.526;2024-01-30T09:33:45;7.50;;;2.63;;
22955;SDS011;40888;48.148;11.526;2024-01-30T09:36:15;5.63;;;2.53;;
22955;SDS011;40888;48.148;11.526;2024-01-30T09:38:43;4.15;;;2.75;;
22955;SDS011;40888;48.148;11.526;2024-01-30T09:41:09;4.97;;;2.65;;
22955;SDS011;40888;48.148;11.526;2024-01-30T09:43:38;3.35;;;2.67;;
22955;SDS011;40888;48.148;11.526;2024-01-30T09:46:07;7.93;;;2.70;;
22955;SDS011;40888;48.148;11.526;2024-01-30T09:48:41;5.40;;;2.53;;
22955;SDS011;40888;48.148;11.526;2024-01-30T09:51:08;7.00;;;2.15;;
22955;SDS011;40888;48.148;11.526;2024-01-30T09:53:35;5.80;;;2.30;;
22955;SDS011;40888;48.148;11.526;2024-01-30T09:56:02;5.22;;;2.80;;
22955;SDS011;40888;48.148;11.526;2024-01-30T09:58:30;5.32;;;2.33;;
22955;SDS011;40888;48.148;11.526;2024-01-30T10:00:56;6.47;;;2.55;;
22955;SDS011;40888;48.148;11.526;2024-01-30T10:03:22;3.75;;;2.28;;
22955;SDS011;40888;48.148;11.526;2024-01-30T10:05:51;7.25;;;2.70;;
22955;SDS011;40888;48.148;11.526;2024-01-30T10:08:18;5.30;;;2.25;;
22955;SDS011;40888;48.148;11.526;2024-01-30T10:10:47;9.75;;;2.50;;
22955;SDS011;40888;48.148;11.526;2024-01-30T10:13:13;8.00;;;2.20;;
22955;SDS011;40888;48.148;11.526;2024-01-30T10:15:39;7.63;;;2.70;;
22955;SDS011;40888;48.148;11.526;2024-01-30T10:18:11;8.10;;;2.75;;
22955;SDS011;40888;48.148;11.526;2024-01-30T10:20:37;6.82;;;2.65;;
22955;SDS011;40888;48.148;11.526;2024-01-30T10:23:04;7.93;;;2.47;;
22955;SDS011;40888;48.148;11.526;2024-01-30T10:25:31;4.18;;;1.90;;
22955;SDS011;40888;48.148;11.526;2024-01-30T10:27:57;7.13;;;1.95;;
22955;SDS011;40888;48.148;11.526;2024-01-30T10:30:23;5.60;;;2.15;;
22955;SDS011;40888;48.148;11.526;2024-01-30T10:32:49;3.55;;;1.88;;
22955;SDS011;40888;48.148;11.526;2024-01-30T10:35:16;2.75;;;2.08;;
22955;SDS011;40888;48.148;11.526;2024-01-30T10:37:48;7.03;;;2.30;;
22955;SDS011;40888;48.148;11.526;2024-01-30T10:40:14;5.95;;;2.20;;
22955;SDS011;40888;48.148;11.526;2024-01-30T10:42:44;6.30;;;2.58;;
22955;SDS011;40888;48.148;11.526;2024-01-30T10:45:13;7.18;;;2.50;;
22955;SDS011;40888;48.148;11.526;2024-01-30T10:47:44;7.90;;;2.60;;
22955;SDS011;40888;48.148;11.526;2024-01-30T10:50:14;3.55;;;2.25;;
22955;SDS011;40888;48.148;11.526;2024-01-30T10:52:41;6.70;;;2.03;;
22955;SDS011;40888;48.148;11.526;2024-01-30T10:55:07;6.68;;;2.42;;
22955;SDS011;40888;48.148;11.526;2024-01-30T10:57:34;4.90;;;2.20;;
22955;SDS011;40888;48.148;11.526;2024-01-30T11:00:02;2.78;;;1.92;;
22955;SDS011;40888;48.148;11.526;2024-01-30T11:02:35;3.20;;;1.90;;
22955;SDS011;40888;48.148;11.526;2024-01-30T11:05:02;5.07;;;2.50;;
22955;SDS011;40888;48.148;11.526;2024-01-30T11:07:30;4.93;;;2.15;;
22955;SDS011;40888;48.148;11.526;2024-01-30T11:12:29;3.28;;;1.45;;
22955;SDS011;40888;48.148;11.526;2024-01-30T11:17:43;2.30;;;2.00;;
22955;SDS011;40888;48.148;11.526;2024-01-30T11:20:09;1.88;;;1.60;;
22955;SDS011;40888;48.148;11.526;2024-01-30T11:22:36;2.05;;;1.83;;
22955;SDS011;40888;48.148;11.526;2024-01-30T11:25:03;2.75;;;1.80;;
22955;SDS011;40888;48.148;11.526;2024-01-30T11:27:30;3.28;;;2.00;;
22955;SDS011;40888;48.148;11.526;2024-01-30T11:30:02;3.38;;;1.90;;
22955;SDS011;40888;48.148;11.526;2024-01-30T11:32:29;4.22;;;1.98;;
22955;SDS011;40888;48.148;11.526;2024-01-30T11:34:55;3.42;;;2.00;;
22955;SDS011;40888;48.148;11.526;2024-01-30T11:37:21;4.90;;;2.17;;
22955;SDS011;40888;48.148;11.526;2024-01-30T11:39:47;4.95;;;1.73;;
22955;SDS011;40888;48.148;11.526;2024-01-30T11:42:14;2.47;;;2.03;;
22955;SDS011;40888;48.148;11.526;2024-01-30T11:44:40;4.60;;;2.13;;
22955;SDS011;40888;48.148;11.526;2024-01-30T11:47:06;3.28;;;2.38;;
22955;SDS011;40888;48.148;11.526;2024-01-30T11:49:32;2.35;;;2.05;;
22955;SDS011;40888;48.148;11.526;2024-01-30T11:51:59;4.03;;;2.20;;
22955;SDS011;40888;48.148;11.526;2024-01-30T11:54:26;2.80;;;1.77;;
22955;SDS011;40888;48.148;11.526;2024-01-30T11:56:52;1.90;;;1.70;;
22955;SDS011;40888;48.148;11.526;2024-01-30T11:59:18;2.40;;;2.10;;
22955;SDS011;40888;48.148;11.526;2024-01-30T12:01:44;2.75;;;2.33;;
22955;SDS011;40888;48.148;11.526;2024-01-30T12:04:10;4.38;;;2.50;;
22955;SDS011;40888;48.148;11.526;2024-01-30T12:06:37;2.95;;;1.92;;
22955;SDS011;40888;48.148;11.526;2024-01-30T12:09:03;4.35;;;1.85;;
22955;SDS011;40888;48.148;11.526;2024-01-30T12:11:29;2.55;;;2.10;;
22955;SDS011;40888;48.148;11.526;2024-01-30T12:13:55;2.80;;;1.88;;
22955;SDS011;40888;48.148;11.526;2024-01-30T12:16:21;3.30;;;1.95;;
22955;SDS011;40888;48.148;11.526;2024-01-30T12:18:48;3.15;;;1.83;;
22955;SDS011;40888;48.148;11.526;2024-01-30T12:21:17;3.30;;;1.90;;
22955;SDS011;40888;48.148;11.526;2024-01-30T12:23:44;4.93;;;1.92;;
22955;SDS011;40888;48.148;11.526;2024-01-30T12:26:10;6.45;;;1.88;;
22955;SDS011;40888;48.148;11.526;2024-01-30T12:28:36;2.15;;;1.70;;
22955;SDS011;40888;48.148;11.526;2024-01-30T12:31:02;3.28;;;1.98;;
22955;SDS011;40888;48.148;11.526;2024-01-30T12:33:29;4.15;;;1.65;;
22955;SDS011;40888;48.148;11.526;2024-01-30T12:35:56;2.17;;;1.75;;
22955;SDS011;40888;48.148;11.526;2024-01-30T12:38:22;3.38;;;2.00;;
22955;SDS011;40888;48.148;11.526;2024-01-30T12:40:49;5.57;;;2.50;;
22955;SDS011;40888;48.148;11.526;2024-01-30T12:43:15;2.10;;;1.90;;
22955;SDS011;40888;48.148;11.526;2024-01-30T12:45:42;2.95;;;1.80;;
22955;SDS011;40888;48.148;11.526;2024-01-30T12:48:08;3.65;;;1.95;;
22955;SDS011;40888;48.148;11.526;2024-01-30T12:50:34;3.13;;;2.03;;
22955;SDS011;40888;48.148;11.526;2024-01-30T12:53:00;6.82;;;2.10;;
22955;SDS011;40888;48.148;11.526;2024-01-30T12:55:26;2.30;;;1.63;;
22955;SDS011;40888;48.148;11.526;2024-01-30T12:57:53;1.95;;;1.58;;
22955;SDS011;40888;48.148;11.526;2024-01-30T13:00:20;3.47;;;1.90;;
22955;SDS011;40888;48.148;11.526;2024-01-30T13:02:47;4.07;;;1.83;;
22955;SDS011;40888;48.148;11.526;2024-01-30T13:05:13;3.75;;;1.75;;
22955;SDS011;40888;48.148;11.526;2024-01-30T13:07:39;1.88;;;1.67;;
22955;SDS011;40888;48.148;11.526;2024-01-30T13:10:05;2.55;;;1.92;;
22955;SDS011;40888;48.148;11.526;2024-01-30T13:12:31;2.97;;;1.88;;
22955;SDS011;40888;48.148;11.526;2024-01-30T13:14:58;3.58;;;1.83;;
22955;SDS011;40888;48.148;11.526;2024-01-30T13:17:29;1.70;;;1.50;;
22955;SDS011;40888;48.148;11.526;2024-01-30T13:19:56;2.63;;;1.67;;
22955;SDS011;40888;48.148;11.526;2024-01-30T13:22:22;1.63;;;1.45;;
22955;SDS011;40888;48.148;11.526;2024-01-30T13:24:48;1.92;;;1.65;;
22955;SDS011;40888;48.148;11.526;2024-01-30T13:27:14;3.08;;;1.70;;
22955;SDS011;40888;48.148;11.526;2024-01-30T13:29:40;6.65;;;1.90;;
22955;SDS011;40888;48.148;11.526;2024-01-30T13:32:06;2.75;;;2.03;;
22955;SDS011;40888;48.148;11.526;2024-01-30T13:34:32;7.32;;;1.80;;
22955;SDS011;40888;48.148;11.526;2024-01-30T13:36:58;1.67;;;1.58;;
22955;SDS011;40888;48.148;11.526;2024-01-30T13:39:24;2.35;;;2.15;;
22955;SDS011;40888;48.148;11.526;2024-01-30T13:41:50;1.50;;;1.40;;
22955;SDS011;40888;48.148;11.526;2024-01-30T13:44:17;4.45;;;1.55;;
22955;SDS011;40888;48.148;11.526;2024-01-30T13:46:43;2.60;;;1.52;;
22955;SDS011;40888;48.148;11.526;2024-01-30T13:49:10;2.05;;;1.42;;
22955;SDS011;40888;48.148;11.526;2024-01-30T13:51:36;1.50;;;1.30;;
22955;SDS011;40888;48.148;11.526;2024-01-30T13:54:02;1.98;;;1.40;;
22955;SDS011;40888;48.148;11.526;2024-01-30T13:56:28;1.70;;;1.60;;
22955;SDS011;40888;48.148;11.526;2024-01-30T13:58:55;4.82;;;1.60;;
22955;SDS011;40888;48.148;11.526;2024-01-30T14:01:21;3.15;;;2.05;;
22955;SDS011;40888;48.148;11.526;2024-01-30T14:03:48;4.78;;;1.90;;
22955;SDS011;40888;48.148;11.526;2024-01-30T14:06:14;3.53;;;1.85;;
22955;SDS011;40888;48.148;11.526;2024-01-30T14:08:40;1.95;;;1.75;;
22955;SDS011;40888;48.148;11.526;2024-01-30T14:11:06;3.78;;;1.83;;
22955;SDS011;40888;48.148;11.526;2024-01-30T14:13:32;2.58;;;1.60;;
22955;SDS011;40888;48.148;11.526;2024-01-30T14:15:58;3.85;;;1.70;;
22955;SDS011;40888;48.148;11.526;2024-01-30T14:18:24;4.03;;;1.95;;
22955;SDS011;40888;48.148;11.526;2024-01-30T14:20:50;3.05;;;2.17;;
22955;SDS011;40888;48.148;11.526;2024-01-30T14:23:17;2.17;;;1.97;;
22955;SDS011;40888;48.148;11.526;2024-01-30T14:25:44;3.33;;;2.17;;
22955;SDS011;40888;48.148;11.526;2024-01-30T14:28:10;2.50;;;1.70;;
22955;SDS011;40888;48.148;11.526;2024-01-30T14:30:36;3.00;;;1.67;;
22955;SDS011;40888;48.148;11.526;2024-01-30T14:33:02;6.53;;;2.10;;
22955;SDS011;40888;48.148;11.526;2024-01-30T14:35:28;2.17;;;1.90;;
22955;SDS011;40888;48.148;11.526;2024-01-30T14:37:55;3.33;;;2.10;;